Time;durP1;ratioP1;P1;durP2;ratioP2;P2;SDS_P1;SDS_P2;PMS_P1;PMS_P2;Temp;Humidity;BMP_temperature;BMP_pressure;BME280_temperature;BME280_humidity;BME280_pressure;Samples;Min_cycle;Max_cycle;Signal;HPM_P1;HPM_P2
2021/09/10 00:00:04;;;;;;;12.00;10.80;;;21.40;99.90;;;;;;5046934;28;20154;-80
2021/09/10 00:02:39;;;;;;;11.52;10.32;;;21.30;99.90;;;;;;5080399;28;20035;-80
2021/09/10 00:05:08;;;;;;;12.48;10.70;;;21.30;99.90;;;;;;5067369;28;20047;-80
2021/09/10 00:07:34;;;;;;;11.50;10.43;;;21.20;99.90;;;;;;5065990;28;20505;-79
2021/09/10 00:10:01;;;;;;;13.20;11.20;;;21.10;99.90;;;;;;5083382;28;20429;-80
2021/09/10 00:12:27;;;;;;;11.68;10.63;;;21.10;99.90;;;;;;5050234;28;20410;-80
2021/09/10 00:14:54;;;;;;;13.50;10.32;;;21.10;99.90;;;;;;5066675;28;20032;-79
2021/09/10 00:17:20;;;;;;;12.88;11.57;;;21.00;99.90;;;;;;5030736;28;20033;-80
2021/09/10 00:19:47;;;;;;;13.32;11.98;;;20.90;99.90;;;;;;5030631;28;20040;-80
2021/09/10 00:22:13;;;;;;;11.85;10.75;;;20.90;99.90;;;;;;5067205;28;20036;-79
2021/09/10 00:24:39;;;;;;;13.00;11.57;;;20.90;99.90;;;;;;5065999;28;20412;-80
2021/09/10 00:27:06;;;;;;;13.07;11.75;;;20.90;99.90;;;;;;5080399;28;20028;-80
2021/09/10 00:29:32;;;;;;;11.50;10.35;;;20.80;99.90;;;;;;5045863;28;20048;-79
2021/09/10 00:32:08;;;;;;;13.02;11.65;;;20.80;99.90;;;;;;5049033;28;20048;-79
2021/09/10 00:34:35;;;;;;;14.10;12.00;;;20.70;99.90;;;;;;5083968;28;20036;-79
2021/09/10 00:37:01;;;;;;;12.48;11.35;;;20.70;99.90;;;;;;5064909;28;20032;-80
2021/09/10 00:39:28;;;;;;;13.02;11.73;;;20.70;99.90;;;;;;5064520;28;20046;-79
2021/09/10 00:41:54;;;;;;;13.18;11.95;;;20.70;99.90;;;;;;5032239;28;20040;-79
2021/09/10 00:44:20;;;;;;;14.30;11.18;;;20.70;99.90;;;;;;5081991;28;20446;-79
2021/09/10 00:46:47;;;;;;;13.13;11.80;;;20.70;99.90;;;;;;5030765;28;20071;-79
2021/09/10 00:49:14;;;;;;;12.65;11.35;;;20.70;99.90;;;;;;5063780;28;20052;-79
2021/09/10 00:51:40;;;;;;;13.52;12.20;;;20.60;99.90;;;;;;5083699;28;20415;-79
2021/09/10 00:54:07;;;;;;;13.00;11.63;;;20.60;99.90;;;;;;5065803;28;20036;-79
2021/09/10 00:56:34;;;;;;;13.68;11.98;;;20.60;99.90;;;;;;5047772;28;20040;-79
2021/09/10 00:59:03;;;;;;;13.23;11.93;;;20.50;99.90;;;;;;5047700;28;20040;-80
2021/09/10 01:01:31;;;;;;;15.45;12.95;;;20.50;99.90;;;;;;5029546;28;20033;-79
2021/09/10 01:03:57;;;;;;;13.75;12.35;;;20.50;99.90;;;;;;5083526;28;20043;-79
2021/09/10 01:06:24;;;;;;;14.90;13.40;;;20.40;99.90;;;;;;5064472;28;20487;-80
2021/09/10 01:08:51;;;;;;;14.38;12.98;;;20.40;99.90;;;;;;5063922;28;20407;-80
2021/09/10 01:11:19;;;;;;;14.43;12.95;;;20.40;99.90;;;;;;5083719;28;20032;-79
2021/09/10 01:13:46;;;;;;;15.38;12.23;;;20.30;99.90;;;;;;5066620;28;20043;-79
2021/09/10 01:16:13;;;;;;;15.35;13.85;;;20.40;99.90;;;;;;5047742;28;20032;-79
2021/09/10 01:18:40;;;;;;;14.55;12.43;;;20.30;99.90;;;;;;5085077;28;20043;-79
2021/09/10 01:21:06;;;;;;;14.10;12.70;;;20.30;99.90;;;;;;5051853;28;20044;-79
2021/09/10 01:23:33;;;;;;;13.98;12.52;;;20.30;99.90;;;;;;5051568;28;20032;-79
2021/09/10 01:25:59;;;;;;;14.88;13.30;;;20.20;99.90;;;;;;5087320;28;20032;-79
2021/09/10 01:28:26;;;;;;;15.18;13.57;;;20.20;99.90;;;;;;5085132;28;20032;-79
2021/09/10 01:30:53;;;;;;;15.02;13.52;;;20.20;99.90;;;;;;5084345;28;20493;-79
2021/09/10 01:33:20;;;;;;;14.38;12.88;;;20.10;99.90;;;;;;5052304;28;20043;-79
2021/09/10 01:35:46;;;;;;;15.27;13.75;;;20.10;99.90;;;;;;5051187;28;20495;-79
2021/09/10 01:38:13;;;;;;;15.02;13.20;;;20.10;99.90;;;;;;5084808;28;20998;-79
2021/09/10 01:40:39;;;;;;;14.75;13.35;;;20.10;99.90;;;;;;5052736;28;20051;-79
2021/09/10 01:43:07;;;;;;;15.45;13.85;;;20.10;99.90;;;;;;5054132;28;20035;-79
2021/09/10 01:45:34;;;;;;;15.55;13.93;;;20.10;99.90;;;;;;5083030;28;20039;-79
2021/09/10 01:48:00;;;;;;;18.60;14.82;;;20.10;99.90;;;;;;5082245;28;20577;-79
2021/09/10 01:50:26;;;;;;;15.48;13.98;;;20.10;99.90;;;;;;5085995;28;20032;-79
2021/09/10 01:52:53;;;;;;;18.67;14.75;;;20.10;99.90;;;;;;5051475;28;20047;-79
2021/09/10 01:55:20;;;;;;;17.95;15.65;;;20.10;99.90;;;;;;5068989;28;20039;-79
2021/09/10 01:57:48;;;;;;;15.75;14.10;;;20.10;99.90;;;;;;5050699;28;20040;-79
2021/09/10 02:00:16;;;;;;;16.05;14.35;;;20.00;99.90;;;;;;5049812;28;20082;-79
2021/09/10 02:02:43;;;;;;;15.88;14.25;;;20.00;99.90;;;;;;5051632;28;20044;-79
2021/09/10 02:05:10;;;;;;;17.33;15.45;;;20.00;99.90;;;;;;5068303;28;20035;-79
2021/09/10 02:07:37;;;;;;;18.42;16.48;;;20.00;99.90;;;;;;5050133;28;21072;-79
2021/09/10 02:10:09;;;;;;;19.38;16.92;;;20.00;99.90;;;;;;5041652;28;20027;-79
2021/09/10 02:12:36;;;;;;;18.50;14.82;;;19.90;99.90;;;;;;5052460;28;20040;-79
2021/09/10 02:15:03;;;;;;;16.15;14.45;;;19.90;99.90;;;;;;5085545;28;20067;-79
2021/09/10 02:17:30;;;;;;;17.08;15.38;;;19.90;99.90;;;;;;5085251;28;20036;-79
2021/09/10 02:19:58;;;;;;;18.05;15.05;;;19.80;99.90;;;;;;5050408;28;20399;-79
2021/09/10 02:22:24;;;;;;;20.25;16.08;;;19.80;99.90;;;;;;5067470;28;20040;-79
2021/09/10 02:24:51;;;;;;;17.77;15.88;;;19.80;99.90;;;;;;5050524;28;20043;-79
2021/09/10 02:27:17;;;;;;;17.35;15.05;;;19.70;99.90;;;;;;5066469;28;20032;-79
2021/09/10 02:29:44;;;;;;;17.65;15.60;;;19.70;99.90;;;;;;5064936;28;20028;-79
2021/09/10 02:32:10;;;;;;;19.02;16.33;;;19.70;99.90;;;;;;5069093;28;20036;-79
2021/09/10 02:34:37;;;;;;;17.13;15.30;;;19.70;99.90;;;;;;5034546;28;20032;-79
2021/09/10 02:37:03;;;;;;;19.75;16.15;;;19.60;99.90;;;;;;5050034;28;20056;-79
2021/09/10 02:39:29;;;;;;;18.05;16.02;;;19.60;99.90;;;;;;5065774;28;20059;-79
2021/09/10 02:41:56;;;;;;;16.95;15.23;;;19.60;99.90;;;;;;5034087;28;20048;-79
2021/09/10 02:44:22;;;;;;;17.25;15.52;;;19.60;99.90;;;;;;5050012;28;20032;-79
2021/09/10 02:46:51;;;;;;;16.67;14.88;;;19.60;99.90;;;;;;5049979;28;20051;-79
2021/09/10 02:49:18;;;;;;;16.20;14.50;;;19.50;99.90;;;;;;5066001;28;20032;-79
2021/09/10 02:51:44;;;;;;;16.58;14.93;;;19.50;99.90;;;;;;5034088;28;20383;-79
2021/09/10 02:54:11;;;;;;;18.85;16.95;;;19.50;99.90;;;;;;5067111;28;20052;-79
2021/09/10 02:56:38;;;;;;;18.05;16.23;;;19.50;99.90;;;;;;5065972;28;20047;-79
2021/09/10 02:59:04;;;;;;;18.92;15.45;;;19.50;99.90;;;;;;5032473;28;20059;-79
2021/09/10 03:01:32;;;;;;;17.73;15.93;;;19.40;99.90;;;;;;5063641;28;20057;-79
2021/09/10 03:03:59;;;;;;;19.95;16.20;;;19.40;99.90;;;;;;5050810;28;20039;-79
2021/09/10 03:06:26;;;;;;;18.02;16.13;;;19.40;99.90;;;;;;5065933;28;20032;-79
2021/09/10 03:08:53;;;;;;;17.23;15.35;;;19.40;99.90;;;;;;5018196;28;20036;-79
2021/09/10 03:11:19;;;;;;;17.75;15.85;;;19.40;99.90;;;;;;5066963;28;20044;-80
2021/09/10 03:13:46;;;;;;;17.88;15.98;;;19.40;99.90;;;;;;5033441;28;20044;-79
2021/09/10 03:16:12;;;;;;;17.95;16.00;;;19.30;99.90;;;;;;5050434;28;20036;-79
2021/09/10 03:18:39;;;;;;;17.13;15.15;;;19.30;99.90;;;;;;5047821;28;20052;-79
2021/09/10 03:21:05;;;;;;;18.83;16.83;;;19.30;99.90;;;;;;5066953;28;20032;-79
2021/09/10 03:23:32;;;;;;;19.88;16.63;;;19.30;99.90;;;;;;5050052;28;20090;-79
2021/09/10 03:25:58;;;;;;;19.38;16.60;;;19.30;99.90;;;;;;5067084;28;20118;-79
2021/09/10 03:28:24;;;;;;;19.02;17.02;;;19.30;99.90;;;;;;5064117;28;20044;-79
2021/09/10 03:30:51;;;;;;;20.55;16.67;;;19.30;99.90;;;;;;5049626;28;20075;-79
2021/09/10 03:33:17;;;;;;;17.95;16.05;;;19.20;99.90;;;;;;5064020;28;20032;-79
2021/09/10 03:35:44;;;;;;;22.13;15.02;;;19.20;99.90;;;;;;5066731;28;20039;-79
2021/09/10 03:38:10;;;;;;;18.92;15.75;;;19.20;99.90;;;;;;5015134;28;20035;-79
2021/09/10 03:40:37;;;;;;;16.98;15.20;;;19.20;99.90;;;;;;5066447;28;20463;-80
2021/09/10 03:43:05;;;;;;;19.17;15.57;;;19.20;99.90;;;;;;5062186;28;20506;-79
2021/09/10 03:45:32;;;;;;;17.55;15.38;;;19.20;99.90;;;;;;5084669;28;20035;-80
2021/09/10 03:47:58;;;;;;;16.70;14.63;;;19.20;99.90;;;;;;5048499;28;20042;-79
2021/09/10 03:50:25;;;;;;;16.70;14.98;;;19.20;99.90;;;;;;5048118;28;20364;-79
2021/09/10 03:52:51;;;;;;;16.65;14.98;;;19.20;99.90;;;;;;5048902;28;20055;-79
2021/09/10 03:55:19;;;;;;;17.30;15.63;;;19.20;99.90;;;;;;5066417;28;20036;-79
2021/09/10 03:57:45;;;;;;;19.10;16.92;;;19.20;99.90;;;;;;5048476;28;20056;-79
2021/09/10 04:00:12;;;;;;;17.77;15.23;;;19.20;99.90;;;;;;5065046;28;20031;-79
2021/09/10 04:02:43;;;;;;;17.35;14.80;;;19.20;99.90;;;;;;5048063;28;20043;-79
2021/09/10 04:05:10;;;;;;;16.88;15.10;;;19.20;99.90;;;;;;5049942;28;20051;-80
2021/09/10 04:07:38;;;;;;;16.13;14.52;;;19.30;99.90;;;;;;5048046;28;20514;-79
2021/09/10 04:10:05;;;;;;;17.13;15.10;;;19.30;99.90;;;;;;5064835;28;20032;-79
2021/09/10 04:12:32;;;;;;;17.33;15.60;;;19.20;99.90;;;;;;5049379;28;20048;-79
2021/09/10 04:14:59;;;;;;;17.08;15.27;;;19.30;99.90;;;;;;5063854;28;20047;-79
2021/09/10 04:17:25;;;;;;;15.70;14.20;;;19.20;99.90;;;;;;5047856;28;20052;-79
2021/09/10 04:19:52;;;;;;;16.65;14.27;;;19.10;99.90;;;;;;5065205;28;20051;-79
2021/09/10 04:22:19;;;;;;;16.23;14.70;;;19.10;99.90;;;;;;5084360;28;20077;-79
2021/09/10 04:24:45;;;;;;;17.17;15.38;;;19.00;99.90;;;;;;5049586;28;20032;-79
2021/09/10 04:27:12;;;;;;;15.35;13.75;;;19.00;99.90;;;;;;5014672;28;20051;-79
2021/09/10 04:29:38;;;;;;;16.80;15.07;;;19.00;99.90;;;;;;5064182;28;20036;-79
2021/09/10 04:32:05;;;;;;;16.50;14.82;;;19.00;99.90;;;;;;5015611;28;20033;-79
2021/09/10 04:34:31;;;;;;;17.23;14.95;;;19.00;99.90;;;;;;5044865;28;20044;-79
2021/09/10 04:36:58;;;;;;;20.02;15.52;;;18.90;99.90;;;;;;5015015;28;20056;-79
2021/09/10 04:39:24;;;;;;;16.05;14.50;;;18.90;99.90;;;;;;5064477;28;20048;-79
2021/09/10 04:41:50;;;;;;;16.60;14.43;;;18.90;99.90;;;;;;5046745;28;20048;-79
2021/09/10 04:44:17;;;;;;;17.52;15.73;;;18.80;99.90;;;;;;5066178;28;20039;-80
2021/09/10 04:46:43;;;;;;;16.67;14.98;;;18.80;99.90;;;;;;5031110;28;20055;-79
2021/09/10 04:49:09;;;;;;;15.55;13.95;;;18.80;99.90;;;;;;5065680;28;20514;-79
2021/09/10 04:51:36;;;;;;;14.55;12.80;;;18.80;99.90;;;;;;5035995;28;20048;-79
2021/09/10 04:54:02;;;;;;;15.88;13.95;;;18.80;99.90;;;;;;5087766;28;20070;-79
2021/09/10 04:56:29;;;;;;;15.80;14.30;;;18.80;99.90;;;;;;5052191;28;20399;-79
2021/09/10 04:58:55;;;;;;;16.70;13.77;;;18.80;99.90;;;;;;5033397;28;20063;-79
2021/09/10 05:01:22;;;;;;;15.38;13.80;;;18.80;99.90;;;;;;5068378;28;20059;-79
2021/09/10 05:03:48;;;;;;;16.52;13.70;;;18.80;99.90;;;;;;5086640;28;20032;-79
2021/09/10 05:06:14;;;;;;;17.10;15.20;;;18.70;99.90;;;;;;5089016;28;20040;-87
2021/09/10 05:08:41;;;;;;;15.13;13.07;;;18.80;99.90;;;;;;5050727;28;20093;-87
2021/09/10 05:11:07;;;;;;;14.52;13.02;;;18.70;99.90;;;;;;5047556;28;20485;-87
2021/09/10 05:13:34;;;;;;;16.95;14.77;;;18.70;99.90;;;;;;5063663;28;20032;-91
2021/09/10 05:16:00;;;;;;;16.20;14.60;;;18.70;99.90;;;;;;5039782;28;20525;-81
2021/09/10 05:18:26;;;;;;;14.23;12.82;;;18.70;99.90;;;;;;5019098;28;20395;-82
2021/09/10 05:20:53;;;;;;;15.18;13.68;;;18.80;99.90;;;;;;5005186;28;20048;-82
2021/09/10 05:23:19;;;;;;;14.40;12.55;;;18.80;99.90;;;;;;5054662;28;20024;-83
2021/09/10 05:25:46;;;;;;;14.80;11.75;;;18.80;99.90;;;;;;5055096;28;20043;-83
2021/09/10 05:28:12;;;;;;;14.82;12.60;;;18.80;99.90;;;;;;5088382;28;20032;-83
2021/09/10 05:30:38;;;;;;;14.27;12.68;;;18.80;99.90;;;;;;5085165;28;20411;-82
2021/09/10 05:33:05;;;;;;;13.75;12.40;;;18.90;99.90;;;;;;5084400;28;20040;-82
2021/09/10 05:35:31;;;;;;;13.40;12.00;;;18.90;99.90;;;;;;5037413;28;20098;-83
2021/09/10 05:37:58;;;;;;;13.88;11.95;;;19.00;99.90;;;;;;5069778;28;20036;-83
2021/09/10 05:40:24;;;;;;;14.60;13.00;;;19.00;99.90;;;;;;5049212;28;20369;-82
2021/09/10 05:42:51;;;;;;;13.77;12.30;;;19.10;99.90;;;;;;5069487;28;20044;-79
2021/09/10 05:45:18;;;;;;;12.57;11.38;;;19.20;99.90;;;;;;5067834;28;20560;-79
2021/09/10 05:47:45;;;;;;;14.93;11.68;;;19.20;99.90;;;;;;5053681;28;20043;-79
2021/09/10 05:50:12;;;;;;;15.00;11.80;;;19.30;99.90;;;;;;5035699;28;20421;-79
2021/09/10 05:52:38;;;;;;;14.70;11.00;;;19.40;99.90;;;;;;5034732;28;20059;-79
2021/09/10 05:55:05;;;;;;;12.38;11.23;;;19.50;99.90;;;;;;5089164;28;20051;-79
2021/09/10 05:57:32;;;;;;;12.27;11.07;;;19.70;99.90;;;;;;5068658;28;20481;-79
2021/09/10 05:59:59;;;;;;;12.82;11.45;;;19.80;99.90;;;;;;5068467;28;20044;-79
2021/09/10 06:02:25;;;;;;;11.90;10.52;;;19.80;99.90;;;;;;5054049;28;20039;-80
2021/09/10 06:04:52;;;;;;;11.30;10.20;;;19.90;99.90;;;;;;5053874;28;20051;-79
2021/09/10 06:07:19;;;;;;;11.82;10.23;;;20.00;99.90;;;;;;5051810;28;20044;-80
2021/09/10 06:09:45;;;;;;;11.00;9.90;;;20.10;99.90;;;;;;5068687;28;20059;-79
2021/09/10 06:12:12;;;;;;;12.45;11.25;;;20.20;99.90;;;;;;5054122;28;20040;-80
2021/09/10 06:14:39;;;;;;;11.82;10.73;;;20.30;99.90;;;;;;5088069;28;20040;-79
2021/09/10 06:17:06;;;;;;;11.45;10.40;;;20.40;99.90;;;;;;5035927;28;20827;-79
2021/09/10 06:19:33;;;;;;;11.70;10.05;;;20.50;99.90;;;;;;5049881;28;20786;-80
2021/09/10 06:22:00;;;;;;;11.10;10.02;;;20.60;99.90;;;;;;5071164;28;20074;-79
2021/09/10 06:24:26;;;;;;;11.40;10.25;;;20.60;99.90;;;;;;5073414;28;20032;-79
2021/09/10 06:26:54;;;;;;;11.40;10.23;;;20.70;99.90;;;;;;5053575;28;20044;-79
2021/09/10 06:29:20;;;;;;;12.98;10.05;;;20.80;99.90;;;;;;5033845;28;20036;-79
2021/09/10 06:31:49;;;;;;;10.10;9.10;;;21.00;99.90;;;;;;5051954;28;20503;-79
2021/09/10 06:34:23;;;;;;;8.98;6.65;;;21.10;99.90;;;;;;5035650;28;20044;-80
2021/09/10 06:36:50;;;;;;;11.38;9.07;;;21.20;99.90;;;;;;5052531;28;20048;-79
2021/09/10 06:39:17;;;;;;;9.45;8.60;;;21.20;99.90;;;;;;5068168;28;20047;-79
2021/09/10 06:41:45;;;;;;;9.70;8.70;;;21.20;99.90;;;;;;5049824;28;20044;-79
2021/09/10 06:44:11;;;;;;;10.27;9.20;;;21.20;99.90;;;;;;5085324;28;20024;-79
2021/09/10 06:46:38;;;;;;;9.55;8.65;;;21.20;99.90;;;;;;5052321;28;20410;-79
2021/09/10 06:49:05;;;;;;;11.95;10.68;;;21.30;99.90;;;;;;5068069;28;20036;-79
2021/09/10 06:51:31;;;;;;;11.65;10.35;;;21.40;99.90;;;;;;5053373;28;20044;-79
2021/09/10 06:53:58;;;;;;;10.90;9.07;;;21.40;99.90;;;;;;5069733;28;20056;-79
2021/09/10 06:56:25;;;;;;;9.55;8.60;;;21.40;99.90;;;;;;5052432;28;20379;-79
2021/09/10 06:58:52;;;;;;;8.95;8.13;;;21.50;99.90;;;;;;5067815;28;20047;-79
2021/09/10 07:01:18;;;;;;;9.52;7.57;;;21.50;99.90;;;;;;5069178;28;20047;-79
2021/09/10 07:03:45;;;;;;;9.43;8.10;;;21.60;99.90;;;;;;5066503;28;20039;-79
2021/09/10 07:06:12;;;;;;;9.63;8.45;;;21.60;99.90;;;;;;5068698;28;20028;-79
2021/09/10 07:08:38;;;;;;;8.77;7.97;;;21.70;99.90;;;;;;5050372;28;20510;-79
2021/09/10 07:11:05;;;;;;;10.38;8.38;;;21.70;99.90;;;;;;5051949;28;20032;-80
2021/09/10 07:13:32;;;;;;;9.00;8.07;;;21.70;99.90;;;;;;5052786;28;20042;-79
2021/09/10 07:15:58;;;;;;;8.88;7.65;;;21.70;99.90;;;;;;5027269;28;20832;-79
2021/09/10 07:18:25;;;;;;;8.63;7.78;;;21.70;99.90;;;;;;5084817;28;20036;-80
2021/09/10 07:20:52;;;;;;;9.13;7.78;;;21.70;99.90;;;;;;5035387;28;20048;-80
2021/09/10 07:23:18;;;;;;;8.40;6.57;;;21.70;99.90;;;;;;5086901;28;20047;-80
2021/09/10 07:25:46;;;;;;;10.05;7.97;;;21.70;99.90;;;;;;5087255;28;20079;-79
2021/09/10 07:28:13;;;;;;;7.65;6.90;;;21.70;99.90;;;;;;5066638;28;20028;-79
2021/09/10 07:30:39;;;;;;;8.18;7.47;;;21.70;99.90;;;;;;5048864;28;20047;-79
2021/09/10 07:33:06;;;;;;;10.48;8.05;;;21.70;99.90;;;;;;5064275;28;20496;-80
2021/09/10 07:35:33;;;;;;;9.75;7.85;;;21.70;99.90;;;;;;5064361;28;20043;-80
2021/09/10 07:38:00;;;;;;;8.45;7.55;;;21.60;99.90;;;;;;5049963;28;20048;-81
2021/09/10 07:40:26;;;;;;;9.30;6.53;;;21.60;99.90;;;;;;5065252;28;20036;-80
2021/09/10 07:42:53;;;;;;;10.57;8.00;;;21.60;99.90;;;;;;5051089;28;20052;-80
2021/09/10 07:45:20;;;;;;;8.88;8.05;;;21.60;99.90;;;;;;5048737;28;20047;-82
2021/09/10 07:47:46;;;;;;;9.23;7.95;;;21.60;99.90;;;;;;5048617;28;20484;-81
2021/09/10 07:50:13;;;;;;;10.82;9.57;;;21.70;99.90;;;;;;5063058;28;20032;-83
2021/09/10 07:52:40;;;;;;;8.02;6.78;;;21.70;99.90;;;;;;5047160;28;20052;-85
2021/09/10 07:55:07;;;;;;;8.73;6.93;;;21.70;99.90;;;;;;5069516;28;20039;-82
2021/09/10 07:57:34;;;;;;;9.02;7.22;;;21.80;99.90;;;;;;5018936;28;20064;-84
2021/09/10 08:00:03;;;;;;;9.35;7.47;;;21.90;99.90;;;;;;5050583;28;20059;-82
2021/09/10 08:02:30;;;;;;;11.38;8.85;;;21.90;99.90;;;;;;5051257;28;20044;-83
2021/09/10 08:04:57;;;;;;;8.77;7.70;;;22.00;99.90;;;;;;5086654;28;20039;-80
2021/09/10 08:07:24;;;;;;;7.95;7.00;;;22.10;99.90;;;;;;5084700;28;20032;-80
2021/09/10 08:09:50;;;;;;;10.43;6.38;;;22.10;99.90;;;;;;5084680;28;20028;-80
2021/09/10 08:12:17;;;;;;;11.27;7.20;;;22.30;99.90;;;;;;5085275;28;20040;-75
2021/09/10 08:14:44;;;;;;;8.93;6.95;;;22.40;99.90;;;;;;5083488;28;20483;-75
2021/09/10 08:17:10;;;;;;;9.25;7.78;;;22.40;99.90;;;;;;5063829;28;20031;-82
2021/09/10 08:19:37;;;;;;;11.05;7.78;;;22.50;99.90;;;;;;5066927;28;20059;-83
2021/09/10 08:22:04;;;;;;;9.40;7.60;;;22.60;99.90;;;;;;5068558;28;20040;-85
2021/09/10 08:24:31;;;;;;;9.07;7.20;;;22.60;99.90;;;;;;5031892;28;20104;-77
2021/09/10 08:26:57;;;;;;;10.23;7.40;;;22.70;99.90;;;;;;5078571;28;20047;-76
2021/09/10 08:29:23;;;;;;;8.27;6.95;;;22.80;99.90;;;;;;5057066;28;20028;-75
2021/09/10 08:31:50;;;;;;;10.70;7.70;;;22.90;99.90;;;;;;5044965;28;20447;-75
2021/09/10 08:34:16;;;;;;;12.15;8.52;;;23.00;99.90;;;;;;5081650;28;20036;-75
2021/09/10 08:36:43;;;;;;;9.82;7.63;;;23.00;99.90;;;;;;5063502;28;20055;-75
2021/09/10 08:39:09;;;;;;;10.35;8.25;;;23.00;99.90;;;;;;5063327;28;20048;-76
2021/09/10 08:41:38;;;;;;;8.40;7.20;;;23.00;99.90;;;;;;5065669;28;20047;-75
2021/09/10 08:44:06;;;;;;;8.85;7.40;;;23.00;99.90;;;;;;5080758;28;20416;-81
2021/09/10 08:46:37;;;;;;;9.52;7.60;;;23.00;99.90;;;;;;5083062;28;20036;-81
2021/09/10 08:49:05;;;;;;;9.30;7.10;;;23.00;99.90;;;;;;5082140;28;20028;-75
2021/09/10 08:51:31;;;;;;;10.50;7.40;;;23.00;99.90;;;;;;5049199;28;20460;-75
2021/09/10 08:53:57;;;;;;;9.60;7.00;;;23.00;99.90;;;;;;5065464;28;20052;-75
2021/09/10 08:56:28;;;;;;;9.55;8.25;;;23.10;99.90;;;;;;5030140;28;20055;-76
2021/09/10 08:59:08;;;;;;;;;;;23.10;99.90;;;;;;5064671;28;20032;-76
2021/09/10 09:01:34;;;;;;;10.45;6.97;;;23.20;99.90;;;;;;5081462;28;19916;-77
2021/09/10 09:04:05;;;;;;;10.77;7.45;;;23.20;99.90;;;;;;5065128;28;20040;-76
2021/09/10 09:06:33;;;;;;;8.77;7.85;;;23.20;99.90;;;;;;5048059;28;20347;-76
2021/09/10 09:09:01;;;;;;;13.32;8.00;;;23.30;99.90;;;;;;5081801;28;20028;-76
2021/09/10 09:11:31;;;;;;;8.07;7.28;;;23.30;99.90;;;;;;5083719;28;20024;-77
2021/09/10 09:14:02;;;;;;;9.45;8.38;;;23.40;99.90;;;;;;5065347;28;20032;-77
2021/09/10 09:16:30;;;;;;;8.60;7.60;;;23.50;99.90;;;;;;5078159;28;20036;-77
2021/09/10 09:18:59;;;;;;;7.93;6.20;;;23.50;99.90;;;;;;5061965;28;20387;-76
2021/09/10 09:21:31;;;;;;;7.43;6.18;;;23.60;99.90;;;;;;5080805;28;20039;-77
2021/09/10 09:24:17;;;;;;;9.32;7.50;;;23.70;99.90;;;;;;5079931;28;20036;-77
2021/09/10 09:26:45;;;;;;;6.45;4.93;;;23.80;99.90;;;;;;5061866;28;20799;-77
2021/09/10 09:29:16;;;;;;;8.23;6.85;;;23.90;99.90;;;;;;5058496;28;20047;-76
2021/09/10 09:31:54;;;;;;;26.55;8.60;;;24.00;99.70;;;;;;5080853;28;20367;-77
2021/09/10 09:34:41;;;;;;;9.40;6.75;;;24.10;99.50;;;;;;5061304;28;20035;-76
2021/09/10 09:37:08;;;;;;;8.38;6.57;;;24.30;99.30;;;;;;5061877;28;20039;-76
2021/09/10 09:39:55;;;;;;;8.63;6.90;;;24.50;99.10;;;;;;5078831;28;20040;-77
2021/09/10 09:42:40;;;;;;;9.25;6.65;;;24.70;98.80;;;;;;5082659;28;20407;-77
2021/09/10 09:45:13;;;;;;;6.25;5.47;;;24.90;98.50;;;;;;5065126;28;20063;-77
2021/09/10 09:47:42;;;;;;;7.10;5.57;;;25.00;98.30;;;;;;5081865;28;20032;-77
2021/09/10 09:50:13;;;;;;;8.23;6.50;;;25.20;98.10;;;;;;5065126;28;20019;-77
2021/09/10 09:52:40;;;;;;;6.68;5.20;;;25.40;97.70;;;;;;5084202;28;20047;-76
2021/09/10 09:55:08;;;;;;;6.53;5.25;;;25.40;97.40;;;;;;5083929;28;20036;-76
2021/09/10 09:57:35;;;;;;;8.57;6.20;;;25.60;97.20;;;;;;5081954;28;20032;-76
2021/09/10 10:00:05;;;;;;;7.25;5.68;;;25.70;97.00;;;;;;5080842;28;20039;-76
2021/09/10 10:02:34;;;;;;;7.32;6.18;;;25.90;96.90;;;;;;5081453;28;20358;-75
2021/09/10 10:05:01;;;;;;;6.55;5.43;;;26.10;96.60;;;;;;5083369;28;20035;-75
2021/09/10 10:07:43;;;;;;;6.78;5.32;;;26.40;96.20;;;;;;5080433;28;20031;-76
2021/09/10 10:10:13;;;;;;;7.38;6.65;;;26.60;95.90;;;;;;5062112;28;20036;-75
2021/09/10 10:12:41;;;;;;;5.90;4.75;;;26.70;94.70;;;;;;5049312;28;20046;-76
2021/09/10 10:15:29;;;;;;;7.43;4.50;;;26.80;94.90;;;;;;5083048;28;20032;-76
2021/09/10 10:17:58;;;;;;;5.68;4.68;;;26.90;94.80;;;;;;5078905;28;20031;-75
2021/09/10 10:20:46;;;;;;;6.65;5.32;;;27.00;94.30;;;;;;5074606;28;20032;-76
2021/09/10 10:23:47;;;;;;;5.45;4.50;;;27.10;94.00;;;;;;5078289;28;20036;-75
2021/09/10 10:26:33;;;;;;;5.22;3.85;;;27.00;93.80;;;;;;5079550;28;20072;-75
2021/09/10 10:29:06;;;;;;;6.78;4.28;;;27.00;93.60;;;;;;5056595;28;20036;-75
2021/09/10 10:31:57;;;;;;;5.88;3.50;;;27.00;93.60;;;;;;5081751;28;20036;-75
2021/09/10 10:34:53;;;;;;;4.57;3.78;;;27.00;93.70;;;;;;5081079;28;20038;-76
2021/09/10 10:37:42;;;;;;;6.40;2.90;;;27.00;93.70;;;;;;5058722;28;20276;-76
2021/09/10 10:40:36;;;;;;;5.32;3.65;;;27.20;93.50;;;;;;5081522;28;20506;-76
2021/09/10 10:43:06;;;;;;;4.32;3.35;;;27.50;93.10;;;;;;5073118;28;20477;-76
2021/09/10 10:45:41;;;;;;;4.53;3.63;;;27.70;92.90;;;;;;5081193;28;20039;-76
2021/09/10 10:48:29;;;;;;;6.25;3.13;;;27.80;92.30;;;;;;5059955;28;20036;-76
2021/09/10 10:50:57;;;;;;;13.90;12.45;;;28.00;92.30;;;;;;5084032;28;20463;-77
2021/09/10 10:53:23;;;;;;;12.20;10.88;;;28.10;91.90;;;;;;5085121;28;20055;-77
2021/09/10 10:55:50;;;;;;;7.10;6.00;;;28.20;91.80;;;;;;5049844;28;20067;-77
2021/09/10 10:58:26;;;;;;;5.50;4.00;;;28.20;91.40;;;;;;5062074;28;20049;-78
2021/09/10 11:01:00;;;;;;;3.72;3.15;;;28.30;91.10;;;;;;5080347;28;20032;-76
2021/09/10 11:03:27;;;;;;;4.05;2.72;;;28.20;91.00;;;;;;5082916;28;20036;-78
2021/09/10 11:05:55;;;;;;;7.88;3.15;;;28.10;91.20;;;;;;5082599;28;20032;-78
2021/09/10 11:08:42;;;;;;;5.80;3.38;;;27.80;91.30;;;;;;5063157;28;20048;-77
2021/09/10 11:11:11;;;;;;;4.53;3.08;;;27.70;91.60;;;;;;5065719;28;20027;-79
2021/09/10 11:13:41;;;;;;;5.80;4.50;;;27.40;91.70;;;;;;5084200;28;20032;-79
2021/09/10 11:16:09;;;;;;;4.07;3.42;;;27.10;91.70;;;;;;5064218;28;20034;-88
2021/09/10 11:18:37;;;;;;;6.65;3.83;;;26.80;92.00;;;;;;5028634;28;20051;-86
2021/09/10 11:21:08;;;;;;;5.75;3.97;;;26.70;92.40;;;;;;5083485;28;20036;-88
2021/09/10 11:23:39;;;;;;;5.00;2.97;;;26.80;92.50;;;;;;5047719;28;20043;-87
2021/09/10 11:26:07;;;;;;;5.63;3.70;;;27.00;92.40;;;;;;5045505;28;20050;-89
2021/09/10 11:28:36;;;;;;;5.43;3.40;;;27.20;92.20;;;;;;5064017;28;20417;-89
2021/09/10 11:31:04;;;;;;;5.22;3.40;;;27.40;92.00;;;;;;5065399;28;20032;-90
2021/09/10 11:33:41;;;;;;;5.65;3.33;;;27.30;91.90;;;;;;5064871;28;20032;-89
2021/09/10 11:36:08;;;;;;;4.55;3.10;;;27.30;92.20;;;;;;5064947;28;20479;-87
2021/09/10 11:38:34;;;;;;;5.00;3.35;;;27.30;91.80;;;;;;5061912;28;20040;-88
2021/09/10 11:41:05;;;;;;;5.07;3.25;;;27.40;91.70;;;;;;5051632;28;20051;-88
2021/09/10 11:43:35;;;;;;;4.63;3.55;;;27.50;91.20;;;;;;5049007;28;20047;-87
2021/09/10 11:46:10;;;;;;;6.70;3.92;;;27.40;91.20;;;;;;5028679;28;20047;-87
2021/09/10 11:48:43;;;;;;;8.70;5.97;;;27.30;91.10;;;;;;5045267;28;20040;-79
2021/09/10 11:51:34;;;;;;;6.85;4.63;;;27.20;91.10;;;;;;5048468;28;20047;-78
2021/09/10 11:54:17;;;;;;;8.35;4.32;;;27.00;91.30;;;;;;5061149;28;20056;-78
2021/09/10 11:56:46;;;;;;;8.93;5.75;;;26.90;91.60;;;;;;5057134;28;20044;-88
2021/09/10 11:59:26;;;;;;;7.05;4.50;;;26.70;92.10;;;;;;5029819;28;20049;-86
2021/09/10 12:02:18;;;;;;;5.53;3.30;;;26.30;92.90;;;;;;5040975;28;20036;-85
2021/09/10 12:05:04;;;;;;;8.63;4.88;;;25.90;93.70;;;;;;5045776;28;20051;-79
2021/09/10 12:07:32;;;;;;;7.70;4.70;;;25.50;94.60;;;;;;5063008;28;20048;-79
2021/09/10 12:09:59;;;;;;;9.40;6.15;;;25.10;95.60;;;;;;5049754;28;20041;-79
2021/09/10 12:12:27;;;;;;;11.02;5.47;;;24.60;96.80;;;;;;5059222;28;20502;-82
2021/09/10 12:14:53;;;;;;;9.75;5.13;;;23.90;97.80;;;;;;5058708;28;20051;-80
2021/09/10 12:17:25;;;;;;;7.05;4.68;;;23.50;99.10;;;;;;5062928;28;20032;-78
2021/09/10 12:20:00;;;;;;;8.85;4.78;;;23.10;99.90;;;;;;5060260;28;20024;-78
2021/09/10 12:22:30;;;;;;;8.13;4.38;;;22.80;99.90;;;;;;5060613;28;20047;-78
2021/09/10 12:25:23;;;;;;;7.75;4.60;;;22.60;99.90;;;;;;5061105;28;20040;-78
2021/09/10 12:27:55;;;;;;;8.75;5.50;;;22.50;99.90;;;;;;5060825;28;20036;-77
2021/09/10 12:30:26;;;;;;;8.60;5.20;;;22.40;99.90;;;;;;5056766;28;20033;-77
2021/09/10 12:32:54;;;;;;;6.85;5.43;;;22.30;99.90;;;;;;5065330;28;20479;-77
2021/09/10 12:35:21;;;;;;;10.23;5.93;;;22.20;99.90;;;;;;5063925;28;20032;-78
2021/09/10 12:37:54;;;;;;;6.00;4.60;;;22.20;99.90;;;;;;5060191;28;20472;-80
2021/09/10 12:40:21;;;;;;;8.55;5.75;;;22.10;99.90;;;;;;5059007;28;20033;-87
2021/09/10 12:42:50;;;;;;;7.93;5.82;;;22.00;99.90;;;;;;5045086;28;20041;-88